Time;durP1;ratioP1;P1;durP2;ratioP2;P2;SDS_P1;SDS_P2;PMS_P1;PMS_P2;Temp;Humidity;BMP_temperature;BMP_pressure;BME280_temperature;BME280_humidity;BME280_pressure;Samples;Min_cycle;Max_cycle;Signal;HPM_P1;HPM_P2
2024/01/26 00:00:10;;;;;;;4.72;4.43;;;6.00;99.90;;;;;;5053974;28;20225;-76
2024/01/26 00:02:37;;;;;;;4.35;4.03;;;6.00;99.90;;;;;;5058373;28;20238;-76
2024/01/26 00:05:07;;;;;;;4.38;4.07;;;5.90;99.90;;;;;;5057767;28;20258;-77
2024/01/26 00:07:34;;;;;;;4.38;4.07;;;5.80;99.90;;;;;;5057564;28;20246;-77
2024/01/26 00:10:01;;;;;;;3.83;3.60;;;5.80;99.90;;;;;;5053953;28;20222;-77
2024/01/26 00:12:28;;;;;;;3.63;3.33;;;5.80;99.90;;;;;;5057127;28;20710;-77
2024/01/26 00:14:55;;;;;;;4.35;4.05;;;5.70;99.90;;;;;;5055329;28;20218;-77
2024/01/26 00:17:22;;;;;;;4.43;4.13;;;5.70;99.90;;;;;;5058828;28;20310;-77
2024/01/26 00:19:50;;;;;;;4.72;4.32;;;5.70;99.90;;;;;;5052681;28;20304;-77
2024/01/26 00:22:20;;;;;;;4.78;4.40;;;5.70;99.90;;;;;;5056986;28;20216;-77
2024/01/26 00:24:47;;;;;;;4.10;3.85;;;5.70;99.90;;;;;;5056253;28;20226;-77
2024/01/26 00:27:14;;;;;;;4.43;4.13;;;5.80;99.90;;;;;;5057458;28;20250;-76
2024/01/26 00:29:41;;;;;;;4.93;4.57;;;5.80;99.90;;;;;;5056380;28;20275;-77
2024/01/26 00:32:07;;;;;;;4.68;4.35;;;5.80;99.90;;;;;;5055323;28;20276;-77
2024/01/26 00:34:35;;;;;;;4.72;4.38;;;5.70;99.90;;;;;;5057685;28;20283;-77
2024/01/26 00:37:02;;;;;;;4.25;3.95;;;5.70;99.90;;;;;;5058210;28;20958;-76
2024/01/26 00:39:30;;;;;;;3.75;3.55;;;5.70;99.90;;;;;;5057998;28;20202;-77
2024/01/26 00:41:57;;;;;;;4.20;3.90;;;5.70;99.90;;;;;;5061041;28;20747;-76
2024/01/26 00:44:24;;;;;;;3.78;3.58;;;5.70;99.90;;;;;;5061231;28;20712;-75
2024/01/26 00:46:51;;;;;;;3.45;3.25;;;5.80;99.90;;;;;;5060665;28;20724;-76
2024/01/26 00:49:18;;;;;;;3.33;3.15;;;5.80;99.90;;;;;;5063084;28;20226;-77
2024/01/26 00:51:45;;;;;;;3.05;2.90;;;5.80;99.90;;;;;;5059623;28;20825;-76
2024/01/26 00:54:12;;;;;;;3.38;3.17;;;5.70;99.90;;;;;;5061999;28;20734;-77
2024/01/26 00:56:41;;;;;;;3.22;3.03;;;5.70;99.90;;;;;;5059011;28;20268;-76
2024/01/26 00:59:08;;;;;;;3.60;3.30;;;5.70;99.90;;;;;;5059238;28;20267;-77
2024/01/26 01:01:35;;;;;;;3.42;3.22;;;5.70;99.90;;;;;;5060324;28;20245;-76
2024/01/26 01:04:02;;;;;;;3.03;2.83;;;5.70;99.90;;;;;;5062677;28;20646;-77
2024/01/26 01:06:29;;;;;;;3.58;3.30;;;5.70;99.90;;;;;;5057957;28;20242;-77
2024/01/26 01:08:56;;;;;;;3.70;3.50;;;5.70;99.90;;;;;;5057781;28;20252;-77
2024/01/26 01:11:22;;;;;;;3.67;3.47;;;5.70;99.90;;;;;;5059744;28;20223;-77
2024/01/26 01:13:51;;;;;;;3.10;2.90;;;5.70;99.90;;;;;;5062570;28;20298;-78
2024/01/26 01:16:18;;;;;;;3.03;2.83;;;5.70;99.90;;;;;;5056185;28;20252;-75
2024/01/26 01:18:45;;;;;;;3.80;3.60;;;5.70;99.90;;;;;;5054646;28;20629;-76
2024/01/26 01:21:12;;;;;;;3.15;2.92;;;5.70;99.90;;;;;;5060598;28;20214;-77
2024/01/26 01:23:39;;;;;;;3.30;3.10;;;5.70;99.90;;;;;;5060506;28;20226;-77
2024/01/26 01:26:06;;;;;;;3.33;3.13;;;5.70;99.90;;;;;;5058420;28;20233;-76
2024/01/26 01:28:33;;;;;;;3.40;3.20;;;5.70;99.90;;;;;;5054544;28;20817;-76
2024/01/26 01:31:01;;;;;;;2.83;2.72;;;5.70;99.90;;;;;;5055795;28;20247;-77
2024/01/26 01:33:28;;;;;;;3.10;2.90;;;5.70;99.90;;;;;;5060854;28;20234;-77
2024/01/26 01:35:55;;;;;;;3.97;2.78;;;5.60;99.90;;;;;;5059203;28;20221;-76
2024/01/26 01:38:22;;;;;;;3.08;2.88;;;5.70;99.90;;;;;;5059553;28;20242;-77
2024/01/26 01:40:49;;;;;;;2.85;2.65;;;5.70;99.90;;;;;;5060999;28;20290;-76
2024/01/26 01:43:17;;;;;;;3.03;2.85;;;5.70;99.90;;;;;;5059127;28;20217;-76
2024/01/26 01:45:44;;;;;;;3.50;3.30;;;5.70;99.90;;;;;;5057176;28;20228;-76
2024/01/26 01:48:13;;;;;;;3.38;3.17;;;5.70;99.90;;;;;;5060958;28;20262;-77
2024/01/26 01:50:40;;;;;;;3.00;2.80;;;5.70;99.90;;;;;;5058859;28;20279;-76
2024/01/26 01:53:09;;;;;;;3.20;3.00;;;5.70;99.90;;;;;;5058872;28;20194;-76
2024/01/26 01:55:37;;;;;;;3.45;3.25;;;5.70;99.90;;;;;;5059410;28;20297;-76
2024/01/26 01:58:04;;;;;;;3.20;3.00;;;5.70;99.90;;;;;;5055974;28;20261;-76
2024/01/26 02:00:32;;;;;;;3.08;2.88;;;5.70;99.90;;;;;;5053654;28;20287;-76
2024/01/26 02:02:59;;;;;;;3.50;3.20;;;5.70;99.90;;;;;;5057965;28;20714;-76
2024/01/26 02:05:28;;;;;;;2.92;2.80;;;5.70;99.90;;;;;;5059059;28;20309;-77
2024/01/26 02:07:54;;;;;;;3.92;3.63;;;5.80;99.90;;;;;;5061012;28;20222;-76
2024/01/26 02:10:22;;;;;;;3.75;3.40;;;5.80;99.90;;;;;;5056669;28;20250;-76
2024/01/26 02:12:49;;;;;;;3.28;3.08;;;5.80;99.90;;;;;;5059089;28;20233;-77
2024/01/26 02:15:15;;;;;;;3.90;3.60;;;5.80;99.90;;;;;;5060129;28;20307;-76
2024/01/26 02:17:42;;;;;;;3.60;3.40;;;5.70;99.90;;;;;;5055200;28;20316;-77
2024/01/26 02:20:10;;;;;;;3.47;3.28;;;5.70;99.90;;;;;;5057520;28;20221;-76
2024/01/26 02:22:38;;;;;;;3.40;3.15;;;5.60;99.90;;;;;;5058962;28;20222;-76
2024/01/26 02:25:08;;;;;;;3.72;3.42;;;5.60;99.90;;;;;;5058608;28;20821;-76
2024/01/26 02:27:35;;;;;;;3.45;3.25;;;5.60;99.90;;;;;;5060110;28;20210;-77
2024/01/26 02:30:02;;;;;;;3.00;2.80;;;5.60;99.90;;;;;;5056692;28;20609;-77
2024/01/26 02:32:29;;;;;;;2.80;2.70;;;5.60;99.90;;;;;;5060447;28;20296;-77
2024/01/26 02:34:56;;;;;;;2.83;2.72;;;5.60;99.90;;;;;;5059329;28;20245;-76
2024/01/26 02:37:23;;;;;;;2.78;2.60;;;5.60;99.90;;;;;;5059379;28;20344;-77
2024/01/26 02:39:50;;;;;;;3.28;3.08;;;5.60;99.90;;;;;;5051334;28;20214;-76
2024/01/26 02:42:18;;;;;;;2.90;2.72;;;5.60;99.90;;;;;;5060052;28;20233;-77
2024/01/26 02:44:45;;;;;;;3.42;3.22;;;5.60;99.90;;;;;;5057698;28;20271;-76
2024/01/26 02:47:12;;;;;;;3.50;3.30;;;5.60;99.90;;;;;;5060160;28;20327;-77
2024/01/26 02:49:42;;;;;;;2.65;2.53;;;5.60;99.90;;;;;;5059690;28;20210;-77
2024/01/26 02:52:09;;;;;;;3.30;3.10;;;5.60;99.90;;;;;;5055150;28;20233;-77
2024/01/26 02:54:35;;;;;;;2.88;2.72;;;5.60;99.90;;;;;;5054257;28;20926;-76
2024/01/26 02:57:02;;;;;;;2.88;2.67;;;5.60;99.90;;;;;;5058383;28;20288;-77
2024/01/26 02:59:31;;;;;;;3.00;2.80;;;5.50;99.90;;;;;;5057468;28;20240;-77
2024/01/26 03:01:58;;;;;;;3.17;2.92;;;5.50;99.90;;;;;;5056178;28;20202;-76
2024/01/26 03:04:25;;;;;;;2.67;2.58;;;5.60;99.90;;;;;;5056678;28;20205;-76
2024/01/26 03:06:53;;;;;;;3.47;3.17;;;5.50;99.90;;;;;;5058577;28;20337;-77
2024/01/26 03:09:20;;;;;;;2.65;2.55;;;5.50;99.90;;;;;;5060561;28;20343;-77
2024/01/26 03:11:47;;;;;;;2.80;2.70;;;5.50;99.90;;;;;;5058164;28;20225;-76
2024/01/26 03:14:15;;;;;;;3.00;2.88;;;5.50;99.90;;;;;;5055961;28;20712;-76
2024/01/26 03:16:43;;;;;;;3.08;2.88;;;5.50;99.90;;;;;;5058784;28;20770;-76
2024/01/26 03:19:11;;;;;;;3.10;2.90;;;5.50;99.90;;;;;;5057279;28;20295;-77
2024/01/26 03:21:42;;;;;;;2.72;2.63;;;5.50;99.90;;;;;;5052655;28;20225;-77
2024/01/26 03:24:09;;;;;;;3.00;2.88;;;5.50;99.90;;;;;;5056087;28;20222;-77
2024/01/26 03:26:37;;;;;;;2.88;2.60;;;5.50;99.90;;;;;;5053216;28;20311;-76
2024/01/26 03:29:04;;;;;;;3.38;3.17;;;5.50;99.90;;;;;;5054884;28;20895;-76
2024/01/26 03:31:31;;;;;;;3.40;3.20;;;5.50;99.90;;;;;;5057941;28;20233;-76
2024/01/26 03:33:59;;;;;;;3.28;3.08;;;5.50;99.90;;;;;;5058428;28;20338;-76
2024/01/26 03:36:27;;;;;;;3.00;2.90;;;5.40;99.90;;;;;;5055433;28;20894;-77
2024/01/26 03:38:54;;;;;;;2.75;2.65;;;5.40;99.90;;;;;;5062108;28;20652;-76
2024/01/26 03:41:21;;;;;;;3.08;2.88;;;5.40;99.90;;;;;;5056645;28;20250;-76
2024/01/26 03:43:51;;;;;;;2.83;2.65;;;5.40;99.90;;;;;;5059836;28;20744;-76
2024/01/26 03:46:19;;;;;;;3.72;3.42;;;5.40;99.90;;;;;;5055175;28;20233;-75
2024/01/26 03:48:45;;;;;;;3.15;2.95;;;5.40;99.90;;;;;;5058090;28;20742;-76
2024/01/26 03:51:14;;;;;;;3.10;2.90;;;5.40;99.90;;;;;;5055836;28;20280;-76
2024/01/26 03:53:41;;;;;;;3.00;2.80;;;5.40;99.90;;;;;;5057757;28;20230;-76
2024/01/26 03:56:08;;;;;;;2.90;2.70;;;5.40;99.90;;;;;;5059442;28;20254;-76
2024/01/26 03:58:35;;;;;;;3.15;2.95;;;5.40;99.90;;;;;;5054715;28;20253;-76
2024/01/26 04:01:02;;;;;;;3.13;2.92;;;5.40;99.90;;;;;;5055633;28;20249;-77
2024/01/26 04:03:28;;;;;;;3.10;2.90;;;5.30;99.90;;;;;;5058986;28;20236;-76
2024/01/26 04:05:56;;;;;;;2.75;2.55;;;5.30;99.90;;;;;;5057693;28;20337;-77
2024/01/26 04:08:24;;;;;;;3.30;3.10;;;5.30;99.90;;;;;;5053713;28;20222;-77
2024/01/26 04:10:51;;;;;;;3.40;3.20;;;5.30;99.90;;;;;;5061164;28;20907;-77
2024/01/26 04:13:18;;;;;;;2.70;2.60;;;5.40;99.90;;;;;;5060234;28;20242;-75
2024/01/26 04:15:46;;;;;;;2.65;2.45;;;5.40;99.90;;;;;;5061079;28;20298;-77
2024/01/26 04:18:13;;;;;;;3.10;2.97;;;5.30;99.90;;;;;;5058877;28;20237;-76
2024/01/26 04:20:40;;;;;;;3.08;2.97;;;5.30;99.90;;;;;;5059990;28;20230;-76
2024/01/26 04:23:07;;;;;;;3.08;2.88;;;5.30;99.90;;;;;;5063221;28;20731;-76
2024/01/26 04:25:36;;;;;;;2.60;2.40;;;5.20;99.90;;;;;;5067522;28;20218;-77
2024/01/26 04:28:03;;;;;;;2.70;2.60;;;5.20;99.90;;;;;;5058441;28;20216;-76
2024/01/26 04:30:30;;;;;;;2.85;2.75;;;5.10;99.90;;;;;;5063194;28;20221;-76
2024/01/26 04:32:57;;;;;;;2.72;2.63;;;5.10;99.90;;;;;;5055545;28;20190;-76
2024/01/26 04:35:24;;;;;;;2.90;2.70;;;5.00;99.90;;;;;;5055970;28;20218;-76
2024/01/26 04:37:51;;;;;;;3.05;2.85;;;5.10;99.90;;;;;;5064505;28;20242;-76
2024/01/26 04:40:18;;;;;;;2.80;2.70;;;5.00;99.90;;;;;;5063577;28;20249;-77
2024/01/26 04:42:47;;;;;;;3.30;3.10;;;5.00;99.90;;;;;;5059423;28;20233;-76
2024/01/26 04:45:14;;;;;;;2.92;2.80;;;5.00;99.90;;;;;;5058592;28;20206;-77
2024/01/26 04:47:41;;;;;;;2.70;2.60;;;4.90;99.90;;;;;;5060655;28;20253;-77
2024/01/26 04:50:08;;;;;;;2.55;2.45;;;4.90;99.90;;;;;;5057049;28;20269;-76
2024/01/26 04:52:35;;;;;;;2.67;2.58;;;4.90;99.90;;;;;;5060485;28;20230;-76
2024/01/26 04:55:02;;;;;;;2.97;2.78;;;4.90;99.90;;;;;;5057230;28;20280;-77
2024/01/26 04:57:29;;;;;;;3.00;2.90;;;4.90;99.90;;;;;;5061192;28;20233;-76
2024/01/26 04:59:57;;;;;;;2.95;2.85;;;4.80;99.90;;;;;;5058467;28;20246;-77
2024/01/26 05:02:24;;;;;;;3.15;3.00;;;4.80;99.90;;;;;;5057132;28;21914;-77
2024/01/26 05:04:51;;;;;;;3.10;3.00;;;4.80;99.90;;;;;;5057679;28;20243;-76
2024/01/26 05:07:18;;;;;;;3.40;3.20;;;4.70;99.90;;;;;;5059258;28;20313;-77
2024/01/26 05:09:45;;;;;;;2.70;2.60;;;4.70;99.90;;;;;;5056506;28;20226;-76
2024/01/26 05:12:12;;;;;;;6.97;3.65;;;4.70;99.90;;;;;;5061713;28;20812;-76
2024/01/26 05:14:39;;;;;;;3.40;3.20;;;4.70;99.90;;;;;;5060965;28;20739;-76
2024/01/26 05:17:07;;;;;;;3.13;2.92;;;4.70;99.90;;;;;;5058254;28;20261;-76
2024/01/26 05:19:34;;;;;;;3.22;3.03;;;4.70;99.90;;;;;;5056503;28;20221;-76
2024/01/26 05:22:01;;;;;;;3.08;2.88;;;4.70;99.90;;;;;;5061770;28;20756;-77
2024/01/26 05:24:28;;;;;;;3.33;3.13;;;4.70;99.90;;;;;;5058887;28;20225;-77
2024/01/26 05:26:55;;;;;;;3.17;3.00;;;4.70;99.90;;;;;;5057221;28;20513;-77
2024/01/26 05:29:22;;;;;;;3.22;3.03;;;4.70;99.90;;;;;;5057358;28;20683;-76
2024/01/26 05:31:49;;;;;;;3.45;3.25;;;4.70;99.90;;;;;;5057460;28;20194;-77
2024/01/26 05:34:18;;;;;;;3.45;3.25;;;4.80;99.90;;;;;;5059465;28;20278;-77
2024/01/26 05:36:45;;;;;;;3.47;3.28;;;4.70;99.90;;;;;;5056957;28;20226;-76
2024/01/26 05:39:12;;;;;;;3.67;3.47;;;4.70;99.90;;;;;;5061934;28;20669;-76
2024/01/26 05:41:39;;;;;;;2.75;2.65;;;4.80;99.90;;;;;;5057630;28;20254;-76
2024/01/26 05:44:07;;;;;;;3.33;3.13;;;4.80;99.90;;;;;;5061539;28;20206;-76
2024/01/26 05:46:34;;;;;;;3.85;3.65;;;4.80;99.90;;;;;;5058753;28;20428;-77
2024/01/26 05:49:04;;;;;;;3.65;3.45;;;4.70;99.90;;;;;;5060643;28;20217;-76
2024/01/26 05:51:32;;;;;;;3.00;2.80;;;4.80;99.90;;;;;;5058074;28;20638;-76
2024/01/26 05:53:59;;;;;;;3.17;2.97;;;4.80;99.90;;;;;;5056052;28;20203;-76
2024/01/26 05:56:26;;;;;;;3.50;3.30;;;4.80;99.90;;;;;;5055578;28;20222;-76
2024/01/26 05:58:53;;;;;;;3.63;3.42;;;4.90;99.90;;;;;;5060632;28;20205;-76
2024/01/26 06:01:20;;;;;;;3.30;3.10;;;4.80;99.90;;;;;;5056438;28;20257;-76
2024/01/26 06:03:47;;;;;;;3.42;3.22;;;4.80;99.90;;;;;;5061492;28;20330;-78
2024/01/26 06:06:15;;;;;;;3.28;3.08;;;4.80;99.90;;;;;;5055575;28;20644;-76
2024/01/26 06:08:44;;;;;;;3.22;3.05;;;4.80;99.90;;;;;;5061422;28;20230;-77
2024/01/26 06:11:11;;;;;;;3.10;2.90;;;4.80;99.90;;;;;;5060542;28;20222;-76
2024/01/26 06:13:38;;;;;;;2.90;2.70;;;4.80;99.90;;;;;;5058758;28;20236;-76
2024/01/26 06:16:05;;;;;;;3.63;3.33;;;4.80;99.90;;;;;;5057640;28;20253;-76
2024/01/26 06:18:33;;;;;;;3.38;3.10;;;4.80;99.90;;;;;;5061174;28;20700;-76
2024/01/26 06:21:00;;;;;;;4.25;3.95;;;4.70;99.90;;;;;;5058734;28;20225;-76
2024/01/26 06:23:27;;;;;;;3.58;3.38;;;4.70;99.90;;;;;;5060192;28;20202;-76
2024/01/26 06:25:56;;;;;;;4.07;3.78;;;4.60;99.90;;;;;;5057756;28;20310;-76
2024/01/26 06:28:22;;;;;;;3.63;3.42;;;4.60;99.90;;;;;;5058733;28;20855;-76
2024/01/26 06:30:50;;;;;;;4.00;3.80;;;4.60;99.90;;;;;;5057040;28;20280;-76
2024/01/26 06:33:17;;;;;;;3.50;3.28;;;4.60;99.90;;;;;;5056606;28;20206;-77
2024/01/26 06:35:44;;;;;;;3.95;3.65;;;4.70;99.90;;;;;;5059195;28;20316;-76
2024/01/26 06:38:12;;;;;;;3.80;3.60;;;5.30;99.90;;;;;;5057241;28;20225;-78
2024/01/26 06:40:39;;;;;;;3.92;3.63;;;5.80;99.90;;;;;;5056103;28;22191;-77
2024/01/26 06:43:08;;;;;;;4.28;3.97;;;6.00;99.90;;;;;;5058247;28;21147;-77
2024/01/26 06:45:35;;;;;;;4.35;4.05;;;5.90;99.90;;;;;;5055485;28;20230;-77
2024/01/26 06:48:02;;;;;;;4.32;4.03;;;5.70;99.90;;;;;;5056123;28;20250;-77
2024/01/26 06:50:29;;;;;;;4.47;4.07;;;5.50;99.90;;;;;;5056093;28;20835;-77
2024/01/26 06:52:56;;;;;;;4.05;3.75;;;5.30;99.90;;;;;;5059192;28;20206;-76
2024/01/26 06:55:24;;;;;;;3.72;3.47;;;5.20;99.90;;;;;;5057627;28;20271;-76
2024/01/26 06:57:51;;;;;;;3.92;3.63;;;5.10;99.90;;;;;;5055909;28;20218;-77
2024/01/26 07:00:23;;;;;;;4.43;3.58;;;5.00;99.90;;;;;;5057643;28;21087;-76
2024/01/26 07:02:50;;;;;;;4.32;4.03;;;4.90;99.90;;;;;;5059907;28;20286;-77
2024/01/26 07:05:17;;;;;;;3.95;3.70;;;4.90;99.90;;;;;;5058370;28;20271;-78
2024/01/26 07:07:46;;;;;;;3.80;3.60;;;4.80;99.90;;;;;;5060110;28;20751;-78
2024/01/26 07:10:13;;;;;;;4.03;3.72;;;4.80;99.90;;;;;;5058173;28;20283;-78
2024/01/26 07:12:41;;;;;;;3.80;3.60;;;4.90;99.90;;;;;;5049063;28;20992;-78
2024/01/26 07:15:10;;;;;;;3.80;3.50;;;4.90;99.90;;;;;;5050925;28;20222;-77
2024/01/26 07:17:38;;;;;;;3.58;3.38;;;4.90;99.90;;;;;;5050566;28;20225;-77
2024/01/26 07:20:06;;;;;;;3.83;3.63;;;4.90;99.90;;;;;;5053265;28;20230;-76
2024/01/26 07:22:33;;;;;;;4.18;3.88;;;4.80;99.90;;;;;;5052406;28;20205;-76
2024/01/26 07:25:00;;;;;;;3.72;3.42;;;4.80;99.90;;;;;;5054959;28;20250;-76
2024/01/26 07:27:28;;;;;;;3.80;3.60;;;4.80;99.90;;;;;;5055130;28;20691;-76
2024/01/26 07:29:55;;;;;;;3.80;3.60;;;4.80;99.90;;;;;;5048875;28;20299;-76
2024/01/26 07:32:22;;;;;;;4.20;3.90;;;4.80;99.90;;;;;;5054735;28;20206;-77
2024/01/26 07:34:50;;;;;;;3.65;3.45;;;4.90;99.90;;;;;;5054800;28;20245;-77
2024/01/26 07:37:17;;;;;;;3.67;3.47;;;4.90;99.90;;;;;;5053929;28;20250;-76
2024/01/26 07:39:44;;;;;;;3.60;3.40;;;4.90;99.90;;;;;;5052437;28;20253;-77
2024/01/26 07:42:11;;;;;;;3.97;3.67;;;4.90;99.90;;;;;;5056571;28;20286;-77
2024/01/26 07:44:38;;;;;;;3.70;3.50;;;4.90;99.90;;;;;;5057036;28;20214;-77
2024/01/26 07:47:05;;;;;;;3.20;3.00;;;5.00;99.90;;;;;;5057863;28;20319;-77
2024/01/26 07:49:32;;;;;;;3.58;3.38;;;5.10;99.90;;;;;;5058807;28;20279;-75
2024/01/26 07:52:00;;;;;;;2.95;2.78;;;5.10;99.90;;;;;;5057835;28;20238;-78
2024/01/26 07:54:27;;;;;;;3.30;3.10;;;5.20;99.90;;;;;;5059072;28;20808;-77
2024/01/26 07:56:54;;;;;;;3.17;2.97;;;5.20;99.90;;;;;;5056368;28;20225;-77
2024/01/26 07:59:21;;;;;;;3.30;3.10;;;5.30;99.90;;;;;;5063409;28;20237;-77
2024/01/26 08:01:48;;;;;;;3.25;3.05;;;5.30;99.90;;;;;;5058959;28;20233;-77
2024/01/26 08:04:15;;;;;;;3.35;3.15;;;5.40;99.90;;;;;;5059989;28;20230;-77
2024/01/26 08:06:42;;;;;;;3.45;3.25;;;5.50;99.90;;;;;;5058392;28;20253;-77
2024/01/26 08:09:10;;;;;;;3.42;3.22;;;5.60;99.90;;;;;;5059101;28;20198;-78
2024/01/26 08:11:38;;;;;;;3.38;3.17;;;5.70;99.90;;;;;;5057655;28;20253;-77
2024/01/26 08:14:06;;;;;;;3.20;3.00;;;5.70;99.90;;;;;;5057150;28;20688;-78
2024/01/26 08:16:35;;;;;;;3.55;3.35;;;6.10;99.90;;;;;;5053286;28;20252;-77
2024/01/26 08:19:03;;;;;;;4.07;3.78;;;7.00;99.90;;;;;;5053381;28;20743;-77
2024/01/26 08:21:30;;;;;;;3.75;3.45;;;7.90;99.90;;;;;;5054988;28;20267;-78
2024/01/26 08:23:57;;;;;;;3.38;3.17;;;8.80;99.90;;;;;;5058299;28;20193;-78
2024/01/26 08:26:26;;;;;;;3.55;3.35;;;9.60;99.90;;;;;;5055399;28;20254;-76
2024/01/26 08:28:54;;;;;;;3.30;3.10;;;10.30;99.90;;;;;;5061432;28;20206;-78
2024/01/26 08:31:20;;;;;;;4.97;3.08;;;10.80;99.90;;;;;;5058392;28;20218;-77
2024/01/26 08:33:47;;;;;;;2.85;2.65;;;11.40;99.90;;;;;;5054875;28;20214;-78
2024/01/26 08:36:14;;;;;;;3.30;3.10;;;11.70;99.90;;;;;;5058180;28;20210;-78
2024/01/26 08:38:41;;;;;;;3.10;2.90;;;12.30;99.90;;;;;;5057412;28;20256;-76
2024/01/26 08:41:08;;;;;;;3.00;2.80;;;12.90;99.90;;;;;;5058479;28;20267;-78
2024/01/26 08:43:37;;;;;;;3.13;2.92;;;13.30;99.90;;;;;;5059883;28;20198;-77
2024/01/26 08:46:04;;;;;;;4.78;4.35;;;13.50;99.90;;;;;;5066327;28;20291;-79
2024/01/26 08:48:32;;;;;;;7.30;6.05;;;13.50;99.90;;;;;;5062641;28;20267;-76
2024/01/26 08:50:59;;;;;;;5.45;4.88;;;13.70;99.90;;;;;;5064437;28;20242;-78
2024/01/26 08:53:26;;;;;;;5.70;5.20;;;13.80;99.90;;;;;;5063738;28;20256;-78
2024/01/26 08:55:52;;;;;;;5.15;4.50;;;14.20;99.90;;;;;;5057967;28;20257;-77
2024/01/26 08:58:19;;;;;;;4.63;4.22;;;14.30;99.90;;;;;;5055158;28;20690;-77
2024/01/26 09:00:49;;;;;;;4.72;4.10;;;14.50;99.90;;;;;;5054278;28;20304;-79
2024/01/26 09:03:16;;;;;;;5.57;4.97;;;14.60;99.90;;;;;;5057965;28;20260;-78
2024/01/26 09:05:43;;;;;;;5.32;4.82;;;14.50;99.90;;;;;;5062117;28;20249;-76
2024/01/26 09:08:10;;;;;;;6.68;4.63;;;14.60;99.90;;;;;;5057990;28;20291;-77
2024/01/26 09:10:37;;;;;;;5.03;4.53;;;14.80;99.90;;;;;;5057423;28;21923;-78
2024/01/26 09:13:04;;;;;;;4.32;3.92;;;14.70;99.90;;;;;;5057406;28;20291;-78
2024/01/26 09:15:31;;;;;;;3.47;3.17;;;14.70;99.90;;;;;;5051330;28;20250;-78
2024/01/26 09:18:00;;;;;;;3.88;3.58;;;14.80;99.90;;;;;;5056040;28;20324;-77
2024/01/26 09:20:27;;;;;;;3.50;3.20;;;15.00;99.90;;;;;;5054089;28;20217;-77
2024/01/26 09:22:54;;;;;;;3.28;2.97;;;15.50;99.90;;;;;;5058105;28;20799;-77
2024/01/26 09:25:22;;;;;;;2.50;2.30;;;15.80;99.90;;;;;;5058166;28;20307;-76
2024/01/26 09:27:49;;;;;;;3.05;2.83;;;15.50;99.90;;;;;;5051926;28;20907;-78
2024/01/26 09:30:16;;;;;;;3.22;3.00;;;15.70;99.90;;;;;;5056539;28;20279;-77
2024/01/26 09:32:43;;;;;;;4.00;3.13;;;16.20;99.90;;;;;;5055192;28;20316;-78
2024/01/26 09:35:12;;;;;;;3.28;3.03;;;17.10;99.90;;;;;;5057251;28;20319;-77
2024/01/26 09:37:39;;;;;;;3.78;3.40;;;18.80;99.90;;;;;;5052451;28;20626;-76
2024/01/26 09:40:08;;;;;;;4.25;3.85;;;20.50;99.90;;;;;;5052600;28;21319;-77
2024/01/26 09:42:35;;;;;;;4.55;4.10;;;21.70;99.90;;;;;;5056246;28;20195;-77
2024/01/26 09:45:04;;;;;;;5.35;4.80;;;22.80;99.90;;;;;;5051658;28;20254;-78
2024/01/26 09:47:32;;;;;;;4.78;4.30;;;23.20;99.90;;;;;;5052547;28;20218;-77
2024/01/26 09:50:03;;;;;;;4.68;4.03;;;23.50;95.10;;;;;;5056136;28;20217;-76
2024/01/26 09:52:34;;;;;;;6.18;4.05;;;22.70;94.00;;;;;;5057818;28;20749;-76
2024/01/26 09:55:03;;;;;;;5.65;4.25;;;22.10;97.20;;;;;;5057024;28;20270;-78
2024/01/26 09:57:31;;;;;;;3.75;2.88;;;21.60;97.40;;;;;;5056717;28;20248;-77
2024/01/26 09:59:58;;;;;;;2.80;2.47;;;20.60;96.30;;;;;;5054049;28;20725;-76
2024/01/26 10:02:26;;;;;;;2.97;2.78;;;19.50;98.20;;;;;;5055700;28;20285;-77
2024/01/26 10:04:56;;;;;;;5.93;4.93;;;18.40;99.90;;;;;;5057364;28;20246;-76
2024/01/26 10:07:23;;;;;;;6.72;4.47;;;17.70;99.90;;;;;;5052956;28;20222;-77
2024/01/26 10:09:51;;;;;;;5.50;3.58;;;17.20;99.90;;;;;;5051563;28;20361;-77
2024/01/26 10:12:18;;;;;;;5.05;4.40;;;17.00;99.90;;;;;;5055399;28;20259;-76
2024/01/26 10:14:45;;;;;;;5.45;4.90;;;16.80;99.90;;;;;;5051688;28;20282;-77
2024/01/26 10:17:17;;;;;;;8.10;5.35;;;17.00;99.90;;;;;;5056568;28;20218;-76
2024/01/26 10:19:43;;;;;;;6.85;5.68;;;17.10;99.90;;;;;;5053005;28;20683;-77
2024/01/26 10:22:11;;;;;;;6.80;5.28;;;17.10;99.90;;;;;;5053910;28;20229;-77
2024/01/26 10:24:37;;;;;;;5.97;5.28;;;17.10;99.90;;;;;;5056132;28;20780;-77
2024/01/26 10:27:06;;;;;;;3.92;3.50;;;17.10;99.90;;;;;;5050999;28;20889;-77
2024/01/26 10:29:34;;;;;;;5.53;4.35;;;17.30;99.90;;;;;;5055576;28;20307;-77
2024/01/26 10:32:02;;;;;;;4.72;4.13;;;17.10;99.90;;;;;;5056888;28;20229;-78
2024/01/26 10:34:31;;;;;;;4.75;4.35;;;16.80;99.90;;;;;;5051669;28;20238;-77
2024/01/26 10:37:05;;;;;;;6.07;4.93;;;16.80;99.90;;;;;;5052615;28;20279;-77
2024/01/26 10:39:34;;;;;;;5.47;4.20;;;16.60;99.90;;;;;;5052477;28;20241;-77
2024/01/26 10:42:04;;;;;;;4.75;4.35;;;16.40;99.90;;;;;;5054414;28;20246;-77
2024/01/26 10:44:37;;;;;;;4.50;4.10;;;16.40;99.90;;;;;;5051775;28;20200;-78
2024/01/26 10:47:05;;;;;;;3.80;3.50;;;16.00;99.90;;;;;;5054052;28;20803;-77
2024/01/26 10:49:34;;;;;;;3.58;3.28;;;15.90;99.90;;;;;;5050203;28;20210;-78
2024/01/26 10:52:02;;;;;;;3.92;3.53;;;16.20;99.90;;;;;;5051619;28;22033;-75
2024/01/26 10:54:30;;;;;;;7.70;4.55;;;16.20;99.90;;;;;;5046611;28;20207;-76
2024/01/26 10:56:57;;;;;;;4.68;4.20;;;16.40;99.90;;;;;;5052879;28;20218;-75
2024/01/26 10:59:26;;;;;;;5.03;4.53;;;16.30;99.90;;;;;;5052005;28;20754;-77
2024/01/26 11:01:55;;;;;;;4.43;4.03;;;16.00;99.90;;;;;;5055408;28;20210;-78
2024/01/26 11:04:22;;;;;;;4.43;3.97;;;15.90;99.90;;;;;;5055111;28;20293;-77
2024/01/26 11:06:49;;;;;;;4.63;4.22;;;15.80;99.90;;;;;;5052139;28;20257;-77
2024/01/26 11:09:19;;;;;;;5.20;3.63;;;15.50;99.90;;;;;;5057240;28;20328;-77
2024/01/26 11:11:51;;;;;;;6.20;4.32;;;15.40;99.90;;;;;;5053779;28;20222;-76
2024/01/26 11:14:26;;;;;;;4.53;4.00;;;15.40;99.90;;;;;;5052613;28;20210;-77
2024/01/26 11:17:09;;;;;;;6.63;4.32;;;15.20;99.90;;;;;;5028395;28;20693;-78
2024/01/26 11:19:36;;;;;;;4.80;4.25;;;15.00;99.90;;;;;;5030741;28;20206;-76
2024/01/26 11:22:05;;;;;;;5.57;3.95;;;14.80;99.90;;;;;;5034131;28;20207;-77
2024/01/26 11:24:34;;;;;;;5.25;4.75;;;14.80;99.90;;;;;;5030791;28;20775;-75
2024/01/26 11:27:03;;;;;;;5.30;4.80;;;14.50;99.90;;;;;;5050709;28;20251;-76
2024/01/26 11:29:34;;;;;;;5.72;4.93;;;14.50;99.90;;;;;;5053978;28;20222;-76
2024/01/26 11:32:14;;;;;;;5.20;4.65;;;14.60;99.90;;;;;;5031532;28;20293;-75
2024/01/26 11:34:40;;;;;;;5.80;5.10;;;14.70;99.90;;;;;;5029210;28;20620;-75
2024/01/26 11:37:10;;;;;;;5.25;4.75;;;14.90;99.90;;;;;;5028875;28;20300;-75
2024/01/26 11:39:38;;;;;;;5.82;5.32;;;15.30;99.90;;;;;;5031155;28;20195;-76
2024/01/26 11:42:09;;;;;;;5.95;5.43;;;15.60;99.90;;;;;;5031977;28;20284;-75
2024/01/26 11:44:40;;;;;;;7.38;5.95;;;15.80;99.90;;;;;;5032177;28;20199;-77
2024/01/26 11:47:09;;;;;;;8.80;5.43;;;15.80;99.90;;;;;;5036651;28;20313;-75
2024/01/26 11:49:37;;;;;;;6.07;5.47;;;15.60;99.90;;;;;;5028430;28;20243;-76
2024/01/26 11:52:05;;;;;;;5.10;4.60;;;15.80;99.90;;;;;;5032048;28;20264;-76
2024/01/26 11:54:32;;;;;;;6.53;5.38;;;16.20;99.90;;;;;;5027285;28;20301;-75
2024/01/26 11:56:59;;;;;;;7.90;5.38;;;16.50;99.90;;;;;;5031262;28;20250;-76
2024/01/26 11:59:28;;;;;;;5.82;5.10;;;16.50;99.90;;;;;;5027200;28;20288;-76
2024/01/26 12:01:55;;;;;;;7.20;4.97;;;16.30;99.90;;;;;;5053369;28;20226;-76
2024/01/26 12:04:24;;;;;;;5.93;5.20;;;16.50;99.90;;;;;;5050118;28;20215;-76
2024/01/26 12:06:52;;;;;;;6.18;4.97;;;16.40;99.90;;;;;;5028282;28;20272;-77
2024/01/26 12:09:19;;;;;;;5.35;4.55;;;16.30;99.90;;;;;;5035941;28;20226;-76
2024/01/26 12:11:46;;;;;;;5.90;5.30;;;15.90;99.90;;;;;;5026375;28;20727;-78
2024/01/26 12:14:14;;;;;;;7.13;5.18;;;15.70;99.90;;;;;;5038303;28;20202;-76
2024/01/26 12:16:41;;;;;;;5.68;4.88;;;15.80;99.90;;;;;;5026015;28;20776;-76
2024/01/26 12:19:08;;;;;;;7.45;5.13;;;15.80;99.90;;;;;;5030341;28;20288;-74
2024/01/26 12:21:37;;;;;;;5.47;4.60;;;15.90;99.90;;;;;;5033056;28;20292;-77
2024/01/26 12:24:10;;;;;;;5.85;5.20;;;15.60;99.90;;;;;;5031970;28;20235;-75
2024/01/26 12:26:37;;;;;;;5.07;4.68;;;15.30;99.90;;;;;;5032904;28;20223;-76
2024/01/26 12:29:04;;;;;;;5.90;4.72;;;15.40;99.90;;;;;;5034040;28;20249;-74
2024/01/26 12:31:32;;;;;;;5.50;5.00;;;15.20;99.90;;;;;;5051092;28;20720;-76
2024/01/26 12:33:59;;;;;;;5.50;4.97;;;14.90;99.90;;;;;;5054053;28;20210;-75
2024/01/26 12:36:31;;;;;;;5.97;4.88;;;14.80;99.90;;;;;;5054553;28;21411;-76
2024/01/26 12:38:59;;;;;;;5.90;5.30;;;14.90;99.90;;;;;;5057318;28;20234;-75
2024/01/26 12:41:27;;;;;;;5.25;4.75;;;15.10;99.90;;;;;;5048982;28;20229;-76
2024/01/26 12:43:55;;;;;;;5.63;5.03;;;15.00;99.90;;;;;;5054945;28;20285;-77
2024/01/26 12:46:22;;;;;;;5.45;4.93;;;15.10;99.90;;;;;;5050327;28;20340;-76
2024/01/26 12:48:49;;;;;;;5.68;5.18;;;15.30;99.90;;;;;;5053569;28;20221;-76
2024/01/26 12:51:16;;;;;;;6.22;5.63;;;15.40;99.90;;;;;;5053834;28;20318;-76
2024/01/26 12:53:43;;;;;;;5.93;5.43;;;15.60;99.90;;;;;;5051297;28;20206;-78